Time;durP1;ratioP1;P1;durP2;ratioP2;P2;SDS_P1;SDS_P2;PMS_P1;PMS_P2;Temp;Humidity;BMP_temperature;BMP_pressure;BME280_temperature;BME280_humidity;BME280_pressure;Samples;Min_cycle;Max_cycle;Signal;HPM_P1;HPM_P2
2022/03/24 00:00:37;;;;;;;;;;;;;;;;;;4966147;28;1241;-70
2022/03/24 00:03:03;;;;;;;;;;;;;;;;;;4983130;28;1256;-70
2022/03/24 00:05:28;;;;;;;;;;;;;;;;;;4982258;28;1347;-70
2022/03/24 00:07:54;;;;;;;;;;;;;;;;;;4981370;28;1895;-70
2022/03/24 00:10:20;;;;;;;;;;;;;;;;;;4983128;28;1236;-70
2022/03/24 00:12:45;;;;;;;;;;;;;;;;;;4982380;28;1260;-70
2022/03/24 00:15:11;;;;;;;;;;;;;;;;;;4982724;28;1248;-71
2022/03/24 00:17:36;;;;;;;;;;;;;;;;;;4983292;28;1142;-70
2022/03/24 00:20:03;;;;;;;;;;;;;;;;;;4982351;28;1261;-70
2022/03/24 00:22:28;;;;;;;;;;;;;;;;;;4982177;28;1320;-71
2022/03/24 00:24:53;;;;;;;;;;;;;;;;;;4982121;28;1392;-71
2022/03/24 00:27:18;;;;;;;;;;;;;;;;;;4982181;28;1910;-71
2022/03/24 00:29:45;;;;;;;;;;;;;;;;;;4981742;28;1256;-70
2022/03/24 00:32:10;;;;;;;;;;;;;;;;;;4982590;28;1303;-70
2022/03/24 00:34:35;;;;;;;;;;;;;;;;;;4980434;28;1308;-71
2022/03/24 00:37:02;;;;;;;;;;;;;;;;;;4981769;28;1549;-70
2022/03/24 00:39:28;;;;;;;;;;;;;;;;;;4981672;28;1925;-70
2022/03/24 00:41:53;;;;;;;;;;;;;;;;;;4981652;28;1110;-70
2022/03/24 00:44:20;;;;;;;;;;;;;;;;;;4981585;28;1256;-70
2022/03/24 00:46:46;;;;;;;;;;;;;;;;;;4981691;28;1894;-69
2022/03/24 00:49:11;;;;;;;;;;;;;;;;;;4981185;28;1352;-69
2022/03/24 00:51:36;;;;;;;;;;;;;;;;;;4981642;28;1256;-70
2022/03/24 00:54:01;;;;;;;;;;;;;;;;;;4981359;28;1327;-70
2022/03/24 00:56:27;;;;;;;;;;;;;;;;;;4980837;28;1276;-70
2022/03/24 00:58:52;;;;;;;;;;;;;;;;;;4981327;28;1307;-70
2022/03/24 01:01:17;;;;;;;;;;;;;;;;;;4981482;28;1284;-70
2022/03/24 01:03:43;;;;;;;;;;;;;;;;;;4981664;28;1177;-70
2022/03/24 01:06:09;;;;;;;;;;;;;;;;;;4980801;28;1898;-70
2022/03/24 01:08:34;;;;;;;;;;;;;;;;;;4981272;28;1332;-70
2022/03/24 01:11:01;;;;;;;;;;;;;;;;;;4980984;28;1203;-70
2022/03/24 01:13:28;;;;;;;;;;;;;;;;;;4980782;28;1117;-70
2022/03/24 01:15:53;;;;;;;;;;;;;;;;;;4980847;28;1316;-71
2022/03/24 01:18:19;;;;;;;;;;;;;;;;;;4980956;28;1293;-70
2022/03/24 01:20:46;;;;;;;;;;;;;;;;;;4981562;28;1344;-70
2022/03/24 01:23:11;;;;;;;;;;;;;;;;;;4980919;28;1316;-70
2022/03/24 01:25:36;;;;;;;;;;;;;;;;;;4981037;28;1248;-71
2022/03/24 01:28:01;;;;;;;;;;;;;;;;;;4981161;28;1894;-70
2022/03/24 01:30:26;;;;;;;;;;;;;;;;;;4981032;28;1248;-70
2022/03/24 01:32:52;;;;;;;;;;;;;;;;;;4981067;28;1404;-70
2022/03/24 01:35:18;;;;;;;;;;;;;;;;;;4980277;28;1358;-70
2022/03/24 01:37:44;;;;;;;;;;;;;;;;;;4980626;28;1441;-70
2022/03/24 01:40:10;;;;;;;;;;;;;;;;;;4980536;28;1261;-71
2022/03/24 01:42:36;;;;;;;;;;;;;;;;;;4978915;28;1291;-71
2022/03/24 01:45:02;;;;;;;;;;;;;;;;;;4980790;28;1328;-71
2022/03/24 01:47:27;;;;;;;;;;;;;;;;;;4980643;28;2013;-71
2022/03/24 01:49:58;;;;;;;;;;;;;;;;;;4979540;28;1284;-71
2022/03/24 01:52:24;;;;;;;;;;;;;;;;;;4979625;28;1304;-70
2022/03/24 01:54:51;;;;;;;;;;;;;;;;;;4980467;28;1228;-71
2022/03/24 01:57:19;;;;;;;;;;;;;;;;;;4981189;28;1315;-71
2022/03/24 01:59:45;;;;;;;;;;;;;;;;;;4981424;28;1375;-71
2022/03/24 02:02:10;;;;;;;;;;;;;;;;;;4980698;28;1277;-71
2022/03/24 02:04:36;;;;;;;;;;;;;;;;;;4980623;28;1359;-70
2022/03/24 02:07:02;;;;;;;;;;;;;;;;;;4980189;28;1902;-71
2022/03/24 02:09:27;;;;;;;;;;;;;;;;;;4981232;28;1351;-70
2022/03/24 02:11:53;;;;;;;;;;;;;;;;;;4980616;28;1317;-70
2022/03/24 02:14:18;;;;;;;;;;;;;;;;;;4981201;28;1315;-70
2022/03/24 02:16:46;;;;;;;;;;;;;;;;;;4979068;28;1284;-70
2022/03/24 02:19:15;;;;;;;;;;;;;;;;;;4981933;28;1252;-69
2022/03/24 02:21:41;;;;;;;;;;;;;;;;;;4978201;28;1473;-70
2022/03/24 02:24:06;;;;;;;;;;;;;;;;;;4979592;28;1379;-69
2022/03/24 02:26:32;;;;;;;;;;;;;;;;;;4980484;28;1918;-69
2022/03/24 02:28:57;;;;;;;;;;;;;;;;;;4980850;28;1300;-70
2022/03/24 02:31:23;;;;;;;;;;;;;;;;;;4981612;28;1327;-69
2022/03/24 02:34:37;;;;;;;;;;;;;;;;;;4978804;28;1427;-69
2022/03/24 02:36:37;;;;;;;;;;;;;;;;;;4977764;28;1400;-70
2022/03/24 02:39:02;;;;;;;;;;;;;;;;;;4981388;28;1289;-70
2022/03/24 02:41:28;;;;;;;;;;;;;;;;;;4980382;28;1253;-69
2022/03/24 02:43:53;;;;;;;;;;;;;;;;;;4979100;28;1581;-70
2022/03/24 02:46:19;;;;;;;;;;;;;;;;;;4980358;28;1906;-70
2022/03/24 02:48:44;;;;;;;;;;;;;;;;;;4979263;28;1456;-69
2022/03/24 02:51:09;;;;;;;;;;;;;;;;;;4980667;28;1328;-70
2022/03/24 02:53:34;;;;;;;;;;;;;;;;;;4982009;28;1170;-69
2022/03/24 02:55:59;;;;;;;;;;;;;;;;;;4983651;28;1252;-69
2022/03/24 02:58:25;;;;;;;;;;;;;;;;;;4983170;28;1498;-70
2022/03/24 03:00:50;;;;;;;;;;;;;;;;;;4983157;28;1289;-69
2022/03/24 03:03:15;;;;;;;;;;;;;;;;;;4983487;28;1359;-70
2022/03/24 03:05:40;;;;;;;;;;;;;;;;;;4983041;28;1414;-70
2022/03/24 03:08:06;;;;;;;;;;;;;;;;;;4983447;28;1914;-70
2022/03/24 03:10:31;;;;;;;;;;;;;;;;;;4983484;28;1319;-70
2022/03/24 03:12:57;;;;;;;;;;;;;;;;;;4983554;28;1272;-70
2022/03/24 03:15:22;;;;;;;;;;;;;;;;;;4983110;28;1336;-70
2022/03/24 03:17:47;;;;;;;;;;;;;;;;;;4981663;28;1791;-70
2022/03/24 03:20:13;;;;;;;;;;;;;;;;;;4982966;28;1426;-70
2022/03/24 03:22:38;;;;;;;;;;;;;;;;;;4983253;28;1304;-70
2022/03/24 03:25:04;;;;;;;;;;;;;;;;;;4983275;28;1331;-70
2022/03/24 03:27:31;;;;;;;;;;;;;;;;;;4983070;28;1886;-70
2022/03/24 03:29:56;;;;;;;;;;;;;;;;;;4983382;28;1078;-70
2022/03/24 03:32:24;;;;;;;;;;;;;;;;;;4982453;28;1399;-70
2022/03/24 03:34:49;;;;;;;;;;;;;;;;;;4982183;28;1446;-70
2022/03/24 03:37:14;;;;;;;;;;;;;;;;;;4984161;28;1236;-70
2022/03/24 03:39:40;;;;;;;;;;;;;;;;;;4984602;28;1365;-70
2022/03/24 03:42:05;;;;;;;;;;;;;;;;;;4982327;28;1524;-70
2022/03/24 03:44:30;;;;;;;;;;;;;;;;;;4982872;28;1344;-70
2022/03/24 03:46:56;;;;;;;;;;;;;;;;;;4983277;28;1978;-69
2022/03/24 03:49:21;;;;;;;;;;;;;;;;;;4982535;28;1327;-70
2022/03/24 03:51:46;;;;;;;;;;;;;;;;;;4983028;28;1211;-69
2022/03/24 03:54:12;;;;;;;;;;;;;;;;;;4983241;28;1282;-69
2022/03/24 03:56:37;;;;;;;;;;;;;;;;;;4982422;28;1215;-68
2022/03/24 03:59:03;;;;;;;;;;;;;;;;;;4983506;28;1265;-69
2022/03/24 04:01:30;;;;;;;;;;;;;;;;;;4984410;28;1249;-70
2022/03/24 04:03:55;;;;;;;;;;;;;;;;;;4980546;28;1462;-69
2022/03/24 04:06:20;;;;;;;;;;;;;;;;;;4981797;28;1947;-69
2022/03/24 04:08:45;;;;;;;;;;;;;;;;;;4982405;28;1379;-69
2022/03/24 04:11:12;;;;;;;;;;;;;;;;;;4982697;28;1324;-69
2022/03/24 04:13:39;;;;;;;;;;;;;;;;;;4982548;28;1236;-69
2022/03/24 04:16:06;;;;;;;;;;;;;;;;;;4982732;28;1312;-69
2022/03/24 04:18:31;;;;;;;;;;;;;;;;;;4981919;28;1451;-69
2022/03/24 04:20:56;;;;;;;;;;;;;;;;;;4982689;28;1351;-69
2022/03/24 04:23:21;;;;;;;;;;;;;;;;;;4980828;28;1399;-68
2022/03/24 04:25:47;;;;;;;;;;;;;;;;;;4982659;28;1376;-69
2022/03/24 04:28:12;;;;;;;;;;;;;;;;;;4981278;28;1959;-68
2022/03/24 04:30:38;;;;;;;;;;;;;;;;;;4982814;28;1240;-70
2022/03/24 04:33:04;;;;;;;;;;;;;;;;;;4972832;28;1275;-69
2022/03/24 04:35:30;;;;;;;;;;;;;;;;;;4982510;28;1248;-70
2022/03/24 04:37:55;;;;;;;;;;;;;;;;;;4982356;28;1166;-70
2022/03/24 04:40:20;;;;;;;;;;;;;;;;;;4983542;28;1418;-69
2022/03/24 04:42:50;;;;;;;;;;;;;;;;;;4981849;28;1335;-70
2022/03/24 04:45:17;;;;;;;;;;;;;;;;;;4982490;28;1371;-68
2022/03/24 04:47:42;;;;;;;;;;;;;;;;;;4982484;28;1894;-68
2022/03/24 04:50:08;;;;;;;;;;;;;;;;;;4981966;28;1311;-68
2022/03/24 04:52:33;;;;;;;;;;;;;;;;;;4981953;28;1237;-68
2022/03/24 04:55:01;;;;;;;;;;;;;;;;;;4980902;28;1446;-68
2022/03/24 04:57:27;;;;;;;;;;;;;;;;;;4981820;28;1271;-68
2022/03/24 04:59:53;;;;;;;;;;;;;;;;;;4982644;28;1461;-69
2022/03/24 05:02:18;;;;;;;;;;;;;;;;;;4981843;28;1260;-68
2022/03/24 05:04:44;;;;;;;;;;;;;;;;;;4981869;28;1311;-69
2022/03/24 05:07:09;;;;;;;;;;;;;;;;;;4980911;28;1985;-69
2022/03/24 05:09:34;;;;;;;;;;;;;;;;;;4981867;28;1248;-69
2022/03/24 05:11:59;;;;;;;;;;;;;;;;;;4982281;28;1229;-68
2022/03/24 05:14:24;;;;;;;;;;;;;;;;;;4981805;28;1261;-68
2022/03/24 05:16:50;;;;;;;;;;;;;;;;;;4979386;28;1701;-68
2022/03/24 05:19:15;;;;;;;;;;;;;;;;;;4981607;28;1367;-68
2022/03/24 05:21:40;;;;;;;;;;;;;;;;;;4981677;28;1450;-68
2022/03/24 05:24:06;;;;;;;;;;;;;;;;;;4979961;28;1493;-69
2022/03/24 05:26:31;;;;;;;;;;;;;;;;;;4981144;28;1902;-68
2022/03/24 05:28:56;;;;;;;;;;;;;;;;;;4981837;28;1260;-69
2022/03/24 05:31:22;;;;;;;;;;;;;;;;;;4981544;28;1200;-69
2022/03/24 05:33:47;;;;;;;;;;;;;;;;;;4981424;28;1253;-69
2022/03/24 05:36:13;;;;;;;;;;;;;;;;;;4982025;28;1265;-69
2022/03/24 05:38:38;;;;;;;;;;;;;;;;;;4980813;28;1435;-69
2022/03/24 05:41:04;;;;;;;;;;;;;;;;;;4981779;28;1272;-69
2022/03/24 05:43:29;;;;;;;;;;;;;;;;;;4982199;28;1304;-69
2022/03/24 05:45:54;;;;;;;;;;;;;;;;;;4980838;28;1343;-68
2022/03/24 05:48:20;;;;;;;;;;;;;;;;;;4981468;28;1891;-69
2022/03/24 05:50:45;;;;;;;;;;;;;;;;;;4980468;28;1481;-69
2022/03/24 05:53:10;;;;;;;;;;;;;;;;;;4981225;28;1266;-69
2022/03/24 05:55:37;;;;;;;;;;;;;;;;;;4979307;28;1296;-68
2022/03/24 05:58:02;;;;;;;;;;;;;;;;;;4981331;28;1272;-70
2022/03/24 06:00:28;;;;;;;;;;;;;;;;;;4981077;28;1189;-69
2022/03/24 06:02:54;;;;;;;;;;;;;;;;;;4981549;28;1535;-70
2022/03/24 06:05:20;;;;;;;;;;;;;;;;;;4980797;28;1501;-68
2022/03/24 06:07:46;;;;;;;;;;;;;;;;;;4980451;28;1902;-69
2022/03/24 06:10:11;;;;;;;;;;;;;;;;;;4981203;28;1269;-69
2022/03/24 06:12:37;;;;;;;;;;;;;;;;;;4980954;28;1241;-70
2022/03/24 06:15:04;;;;;;;;;;;;;;;;;;4980137;28;1252;-68
2022/03/24 06:17:29;;;;;;;;;;;;;;;;;;4979733;28;1423;-68
2022/03/24 06:19:54;;;;;;;;;;;;;;;;;;4979544;28;1280;-68
2022/03/24 06:22:19;;;;;;;;;;;;;;;;;;4980188;28;1292;-68
2022/03/24 06:24:44;;;;;;;;;;;;;;;;;;4980692;28;1323;-68
2022/03/24 06:27:10;;;;;;;;;;;;;;;;;;4980638;28;1890;-69
2022/03/24 06:29:35;;;;;;;;;;;;;;;;;;4983307;28;1371;-69
2022/03/24 06:32:00;;;;;;;;;;;;;;;;;;4983498;28;1414;-68
2022/03/24 06:34:26;;;;;;;;;;;;;;;;;;4983593;28;1355;-69
2022/03/24 06:36:51;;;;;;;;;;;;;;;;;;4984057;28;1346;-69
2022/03/24 06:39:16;;;;;;;;;;;;;;;;;;4983641;28;1217;-69
2022/03/24 06:41:42;;;;;;;;;;;;;;;;;;4984009;28;1316;-69
2022/03/24 06:44:08;;;;;;;;;;;;;;;;;;4983820;28;1256;-71
2022/03/24 06:46:33;;;;;;;;;;;;;;;;;;4982840;28;1911;-69
2022/03/24 06:49:00;;;;;;;;;;;;;;;;;;4984032;28;1174;-67
2022/03/24 06:51:25;;;;;;;;;;;;;;;;;;4983628;28;1252;-68
2022/03/24 06:53:50;;;;;;;;;;;;;;;;;;4983277;28;1461;-67
2022/03/24 06:56:15;;;;;;;;;;;;;;;;;;4982302;28;1493;-67
2022/03/24 06:58:43;;;;;;;;;;;;;;;;;;4984769;28;1578;-67
2022/03/24 07:01:09;;;;;;;;;;;;;;;;;;4982649;28;1450;-68
2022/03/24 07:03:34;;;;;;;;;;;;;;;;;;4983224;28;1257;-69
2022/03/24 07:05:59;;;;;;;;;;;;;;;;;;4983912;28;1327;-68
2022/03/24 07:08:25;;;;;;;;;;;;;;;;;;4981795;28;1894;-69
2022/03/24 07:10:51;;;;;;;;;;;;;;;;;;4984373;28;1343;-68
2022/03/24 07:13:17;;;;;;;;;;;;;;;;;;4984983;28;1134;-68
2022/03/24 07:15:42;;;;;;;;;;;;;;;;;;4982027;28;1236;-68
2022/03/24 07:18:07;;;;;;;;;;;;;;;;;;4982265;28;1828;-69
2022/03/24 07:20:34;;;;;;;;;;;;;;;;;;4981780;28;1359;-69
2022/03/24 07:23:02;;;;;;;;;;;;;;;;;;4981791;28;1391;-68
2022/03/24 07:25:28;;;;;;;;;;;;;;;;;;4981553;28;1311;-69
2022/03/24 07:27:53;;;;;;;;;;;;;;;;;;4982611;28;1957;-69
2022/03/24 07:30:19;;;;;;;;;;;;;;;;;;4982930;28;1422;-69
2022/03/24 07:32:44;;;;;;;;;;;;;;;;;;4985132;28;1470;-69
2022/03/24 07:35:09;;;;;;;;;;;;;;;;;;4982057;28;1232;-69
2022/03/24 07:37:35;;;;;;;;;;;;;;;;;;4982520;28;1308;-69
2022/03/24 07:40:02;;;;;;;;;;;;;;;;;;4980678;28;1450;-69
2022/03/24 07:42:28;;;;;;;;;;;;;;;;;;4982259;28;1229;-69
2022/03/24 07:44:53;;;;;;;;;;;;;;;;;;4980282;28;1418;-69
2022/03/24 07:47:18;;;;;;;;;;;;;;;;;;4982744;28;1990;-70
2022/03/24 07:49:45;;;;;;;;;;;;;;;;;;4981318;28;1284;-69
2022/03/24 07:52:12;;;;;;;;;;;;;;;;;;4982136;28;1311;-69
2022/03/24 07:55:00;;;;;;;;;;;;;;;;;;4981984;28;1431;-69
2022/03/24 07:57:26;;;;;;;;;;;;;;;;;;4979277;28;1719;-68
2022/03/24 07:59:51;;;;;;;;;;;;;;;;;;4984018;28;1516;-70
2022/03/24 08:02:17;;;;;;;;;;;;;;;;;;4984511;28;1402;-70
2022/03/24 08:04:43;;;;;;;;;;;;;;;;;;4986961;28;1261;-70
2022/03/24 08:07:08;;;;;;;;;;;;;;;;;;4982497;28;1910;-70
2022/03/24 08:09:33;;;;;;;;;;;;;;;;;;4985539;28;1391;-69
2022/03/24 08:11:59;;;;;;;;;;;;;;;;;;4985197;28;1312;-70
2022/03/24 08:14:24;;;;;;;;;;;;;;;;;;4982431;28;1540;-69
2022/03/24 08:16:50;;;;;;;;;;;;;;;;;;4983000;28;1327;-69
2022/03/24 08:19:15;;;;;;;;;;;;;;;;;;4983964;28;1339;-70
2022/03/24 08:21:41;;;;;;;;;;;;;;;;;;4983845;28;1241;-72
2022/03/24 08:24:06;;;;;;;;;;;;;;;;;;4981103;28;1466;-71
2022/03/24 08:26:33;;;;;;;;;;;;;;;;;;4982241;28;1902;-72
2022/03/24 08:28:58;;;;;;;;;;;;;;;;;;4984831;28;1190;-71
2022/03/24 08:31:24;;;;;;;;;;;;;;;;;;4982410;28;1418;-71
2022/03/24 08:33:49;;;;;;;;;;;;;;;;;;4984527;28;1465;-71
2022/03/24 08:36:14;;;;;;;;;;;;;;;;;;4982694;28;1461;-71
2022/03/24 08:38:39;;;;;;;;;;;;;;;;;;4982764;28;1433;-70
2022/03/24 08:41:04;;;;;;;;;;;;;;;;;;4981724;28;1450;-70
2022/03/24 08:43:30;;;;;;;;;;;;;;;;;;4981726;28;1423;-71
2022/03/24 08:45:55;;;;;;;;;;;;;;;;;;4981224;28;1354;-70
2022/03/24 08:48:20;;;;;;;;;;;;;;;;;;4984034;28;1902;-70
2022/03/24 08:50:45;;;;;;;;;;;;;;;;;;4983023;28;1407;-69
2022/03/24 08:53:11;;;;;;;;;;;;;;;;;;4983087;28;1273;-70
2022/03/24 08:55:36;;;;;;;;;;;;;;;;;;4983398;28;1644;-71
2022/03/24 08:58:01;;;;;;;;;;;;;;;;;;4983675;28;1418;-73
2022/03/24 09:00:26;;;;;;;;;;;;;;;;;;4984864;28;1319;-68
2022/03/24 09:02:53;;;;;;;;;;;;;;;;;;4982192;28;1371;-71
2022/03/24 09:05:19;;;;;;;;;;;;;;;;;;4983376;28;1658;-70
2022/03/24 09:07:45;;;;;;;;;;;;;;;;;;4981637;28;1943;-67
2022/03/24 09:10:12;;;;;;;;;;;;;;;;;;4982612;28;1237;-68
2022/03/24 09:12:38;;;;;;;;;;;;;;;;;;4980285;28;1641;-69
2022/03/24 09:15:05;;;;;;;;;;;;;;;;;;4981485;28;1513;-67
2022/03/24 09:17:31;;;;;;;;;;;;;;;;;;4984283;28;1316;-65
2022/03/24 09:19:56;;;;;;;;;;;;;;;;;;4981547;28;1367;-69
2022/03/24 09:22:21;;;;;;;;;;;;;;;;;;4982436;28;1509;-69
2022/03/24 09:24:46;;;;;;;;;;;;;;;;;;4981878;28;1174;-69
2022/03/24 09:27:12;;;;;;;;;;;;;;;;;;4981113;28;1898;-70
2022/03/24 09:29:37;;;;;;;;;;;;;;;;;;4982360;28;1166;-69
2022/03/24 09:32:03;;;;;;;;;;;;;;;;;;4982524;28;1316;-69
2022/03/24 09:34:28;;;;;;;;;;;;;;;;;;4985425;28;1221;-70
2022/03/24 09:36:54;;;;;;;;;;;;;;;;;;4982138;28;1283;-70
2022/03/24 09:39:19;;;;;;;;;;;;;;;;;;4981359;28;1228;-69
2022/03/24 09:41:47;;;;;;;;;;;;;;;;;;4979895;28;1363;-68
2022/03/24 09:44:12;;;;;;;;;;;;;;;;;;4982661;28;1494;-69
2022/03/24 09:46:38;;;;;;;;;;;;;;;;;;4979502;28;1978;-71
2022/03/24 09:49:03;;;;;;;;;;;;;;;;;;4981666;28;1173;-69
2022/03/24 09:51:29;;;;;;;;;;;;;;;;;;4983293;28;1261;-68
2022/03/24 09:53:55;;;;;;;;;;;;;;;;;;4983441;28;1209;-68
2022/03/24 09:56:20;;;;;;;;;;;;;;;;;;4983934;28;1366;-70
2022/03/24 09:58:49;;;;;;;;;;;;;;;;;;4982107;28;1435;-69
2022/03/24 10:01:15;;;;;;;;;;;;;;;;;;4981906;28;1836;-70
2022/03/24 10:04:00;;;;;;;;;;;;;;;;;;4981787;28;1308;-68
2022/03/24 10:06:25;;;;;;;;;;;;;;;;;;4981436;28;1287;-67
2022/03/24 10:08:51;;;;;;;;;;;;;;;;;;4980533;28;1923;-68
2022/03/24 10:11:16;;;;;;;;;;;;;;;;;;4982219;28;1399;-68
2022/03/24 10:13:44;;;;;;;;;;;;;;;;;;4980422;28;1406;-69
2022/03/24 10:16:10;;;;;;;;;;;;;;;;;;4978759;28;1768;-68
2022/03/24 10:18:35;;;;;;;;;;;;;;;;;;4981120;28;1532;-67
2022/03/24 10:21:01;;;;;;;;;;;;;;;;;;4981657;28;1208;-70
2022/03/24 10:23:26;;;;;;;;;;;;;;;;;;4980574;28;1292;-69
2022/03/24 10:25:52;;;;;;;;;;;;;;;;;;4980888;28;1529;-68
2022/03/24 10:28:17;;;;;;;;;;;;;;;;;;4981945;28;1906;-69
2022/03/24 10:30:46;;;;;;;;;;;;;;;;;;4982523;28;1336;-69
2022/03/24 10:33:24;;;;;;;;;;;;;;;;;;4981908;28;1268;-69
2022/03/24 10:35:50;;;;;;;;;;;;;;;;;;4980225;28;1430;-69
2022/03/24 10:38:15;;;;;;;;;;;;;;;;;;4981320;28;1376;-68
2022/03/24 10:40:40;;;;;;;;;;;;;;;;;;4979611;28;1454;-69
2022/03/24 10:43:21;;;;;;;;;;;;;;;;;;4978620;28;1576;-69
2022/03/24 10:45:46;;;;;;;;;;;;;;;;;;4980071;28;1320;-67
2022/03/24 10:48:11;;;;;;;;;;;;;;;;;;4979224;28;1977;-69
2022/03/24 10:50:40;;;;;;;;;;;;;;;;;;4979925;28;1648;-67
2022/03/24 10:53:13;;;;;;;;;;;;;;;;;;4980084;28;1387;-69
2022/03/24 10:55:45;;;;;;;;;;;;;;;;;;4977871;28;1423;-67
2022/03/24 10:58:13;;;;;;;;;;;;;;;;;;4978413;28;1446;-69
2022/03/24 11:00:40;;;;;;;;;;;;;;;;;;4980327;28;1236;-69
2022/03/24 11:03:05;;;;;;;;;;;;;;;;;;4980024;28;1336;-68
2022/03/24 11:05:31;;;;;;;;;;;;;;;;;;4981415;28;1343;-69
2022/03/24 11:07:56;;;;;;;;;;;;;;;;;;4980725;28;1914;-68
2022/03/24 11:10:22;;;;;;;;;;;;;;;;;;4979759;28;1296;-68
2022/03/24 11:12:48;;;;;;;;;;;;;;;;;;4979648;28;1430;-68
2022/03/24 11:15:16;;;;;;;;;;;;;;;;;;4980669;28;1358;-68
2022/03/24 11:17:41;;;;;;;;;;;;;;;;;;4983945;28;1304;-69
2022/03/24 11:20:23;;;;;;;;;;;;;;;;;;4983553;28;1293;-68
2022/03/24 11:23:11;;;;;;;;;;;;;;;;;;4982444;28;1234;-69
2022/03/24 11:25:37;;;;;;;;;;;;;;;;;;4978828;28;1438;-69
2022/03/24 11:28:03;;;;;;;;;;;;;;;;;;4981562;28;1902;-70
2022/03/24 11:30:28;;;;;;;;;;;;;;;;;;4984015;28;1486;-68
2022/03/24 11:32:54;;;;;;;;;;;;;;;;;;4982447;28;1350;-67
2022/03/24 11:35:20;;;;;;;;;;;;;;;;;;4981661;28;1903;-67
2022/03/24 11:37:45;;;;;;;;;;;;;;;;;;4982048;28;1442;-68
2022/03/24 11:40:12;;;;;;;;;;;;;;;;;;4983251;28;1370;-68
2022/03/24 11:42:48;;;;;;;;;;;;;;;;;;4984462;28;1284;-68
2022/03/24 11:45:32;;;;;;;;;;;;;;;;;;4984918;28;1403;-68
2022/03/24 11:48:08;;;;;;;;;;;;;;;;;;4982129;28;1906;-67
2022/03/24 11:50:41;;;;;;;;;;;;;;;;;;4983279;28;1034;-67
2022/03/24 11:53:11;;;;;;;;;;;;;;;;;;4982338;28;1172;-67
2022/03/24 11:55:37;;;;;;;;;;;;;;;;;;4982059;28;1329;-67
2022/03/24 11:58:03;;;;;;;;;;;;;;;;;;4982733;28;1308;-68
2022/03/24 12:00:28;;;;;;;;;;;;;;;;;;4980912;28;1594;-67
2022/03/24 12:02:58;;;;;;;;;;;;;;;;;;4981890;28;1553;-67
2022/03/24 12:05:43;;;;;;;;;;;;;;;;;;4982316;28;1303;-67
2022/03/24 12:08:08;;;;;;;;;;;;;;;;;;4982682;28;1969;-67
2022/03/24 12:10:34;;;;;;;;;;;;;;;;;;4982698;28;1173;-67
2022/03/24 12:13:00;;;;;;;;;;;;;;;;;;4981901;28;1411;-67
2022/03/24 12:15:25;;;;;;;;;;;;;;;;;;4982464;28;1360;-67
2022/03/24 12:18:01;;;;;;;;;;;;;;;;;;4981428;28;1453;-67
2022/03/24 12:20:26;;;;;;;;;;;;;;;;;;4980877;28;1454;-67
2022/03/24 12:22:57;;;;;;;;;;;;;;;;;;4982031;28;1280;-67
2022/03/24 12:25:25;;;;;;;;;;;;;;;;;;4977607;28;1450;-67
2022/03/24 12:27:55;;;;;;;;;;;;;;;;;;4980510;28;1902;-66
2022/03/24 12:30:20;;;;;;;;;;;;;;;;;;4980573;28;1403;-67
2022/03/24 12:33:05;;;;;;;;;;;;;;;;;;4982662;28;1438;-66
2022/03/24 12:35:41;;;;;;;;;;;;;;;;;;4983482;28;1381;-68
2022/03/24 12:38:24;;;;;;;;;;;;;;;;;;4981301;28;1433;-66
2022/03/24 12:41:08;;;;;;;;;;;;;;;;;;4981932;28;1169;-67
2022/03/24 12:43:40;;;;;;;;;;;;;;;;;;4982515;28;1222;-67
2022/03/24 12:46:26;;;;;;;;;;;;;;;;;;4981692;28;1342;-67
2022/03/24 12:48:51;;;;;;;;;;;;;;;;;;4981683;28;1898;-68
2022/03/24 12:51:37;;;;;;;;;;;;;;;;;;4981688;28;1485;-67
2022/03/24 12:54:03;;;;;;;;;;;;;;;;;;4980510;28;1268;-67
2022/03/24 12:56:30;;;;;;;;;;;;;;;;;;4981751;28;1272;-67
2022/03/24 12:59:05;;;;;;;;;;;;;;;;;;4981875;28;1327;-66
2022/03/24 13:01:31;;;;;;;;;;;;;;;;;;4981457;28;1490;-67
2022/03/24 13:03:57;;;;;;;;;;;;;;;;;;4981120;28;1403;-69
2022/03/24 13:06:23;;;;;;;;;;;;;;;;;;4980361;28;1343;-66
2022/03/24 13:09:18;;;;;;;;;;;;;;;;;;4981890;28;1898;-67
2022/03/24 13:12:05;;;;;;;;;;;;;;;;;;4975704;28;1466;-66
2022/03/24 13:14:31;;;;;;;;;;;;;;;;;;4980529;28;1411;-67
2022/03/24 13:17:02;;;;;;;;;;;;;;;;;;4980683;28;1447;-66
2022/03/24 13:19:28;;;;;;;;;;;;;;;;;;4980188;28;1280;-65
2022/03/24 13:21:54;;;;;;;;;;;;;;;;;;4981760;28;1421;-66
2022/03/24 13:24:20;;;;;;;;;;;;;;;;;;4980931;28;1462;-65
2022/03/24 13:26:56;;;;;;;;;;;;;;;;;;4980730;28;1902;-66
2022/03/24 13:29:21;;;;;;;;;;;;;;;;;;4981746;28;1229;-66
2022/03/24 13:31:46;;;;;;;;;;;;;;;;;;4979437;28;1449;-67
2022/03/24 13:34:13;;;;;;;;;;;;;;;;;;4978833;28;1417;-66
2022/03/24 13:36:39;;;;;;;;;;;;;;;;;;4980033;28;1369;-67
2022/03/24 13:39:04;;;;;;;;;;;;;;;;;;4979139;28;1407;-65
2022/03/24 13:41:30;;;;;;;;;;;;;;;;;;4981568;28;1343;-70
2022/03/24 13:43:55;;;;;;;;;;;;;;;;;;4980935;28;1335;-66
2022/03/24 13:46:21;;;;;;;;;;;;;;;;;;4980895;28;1245;-66
2022/03/24 13:48:49;;;;;;;;;;;;;;;;;;4981290;28;1982;-64
2022/03/24 13:51:19;;;;;;;;;;;;;;;;;;4980965;28;1406;-64
2022/03/24 13:53:44;;;;;;;;;;;;;;;;;;4980083;28;1418;-65
2022/03/24 13:56:10;;;;;;;;;;;;;;;;;;4980890;28;1305;-66
2022/03/24 13:58:37;;;;;;;;;;;;;;;;;;4979518;28;1446;-66
2022/03/24 14:01:04;;;;;;;;;;;;;;;;;;4979988;28;1394;-65
2022/03/24 14:03:29;;;;;;;;;;;;;;;;;;4978884;28;1461;-66
2022/03/24 14:05:56;;;;;;;;;;;;;;;;;;4980490;28;1268;-65
2022/03/24 14:08:25;;;;;;;;;;;;;;;;;;4978943;28;1931;-65
2022/03/24 14:10:58;;;;;;;;;;;;;;;;;;4978390;28;1446;-65
2022/03/24 14:13:26;;;;;;;;;;;;;;;;;;4980412;28;1193;-65
2022/03/24 14:15:51;;;;;;;;;;;;;;;;;;4979438;28;1490;-65
2022/03/24 14:18:18;;;;;;;;;;;;;;;;;;4980268;28;1390;-67
2022/03/24 14:20:45;;;;;;;;;;;;;;;;;;4980029;28;1422;-65
2022/03/24 14:23:23;;;;;;;;;;;;;;;;;;4980452;28;1414;-66
2022/03/24 14:25:48;;;;;;;;;;;;;;;;;;4980552;28;1276;-66
2022/03/24 14:28:28;;;;;;;;;;;;;;;;;;4980788;28;1973;-65
2022/03/24 14:30:53;;;;;;;;;;;;;;;;;;4980777;28;1292;-66
2022/03/24 14:33:19;;;;;;;;;;;;;;;;;;4980342;28;1407;-66
2022/03/24 14:35:55;;;;;;;;;;;;;;;;;;4980095;28;1362;-71
2022/03/24 14:38:20;;;;;;;;;;;;;;;;;;4980046;28;1652;-68
2022/03/24 14:40:46;;;;;;;;;;;;;;;;;;4979625;28;1501;-67
2022/03/24 14:43:15;;;;;;;;;;;;;;;;;;4980496;28;1438;-67
2022/03/24 14:45:42;;;;;;;;;;;;;;;;;;4977681;28;1403;-70
2022/03/24 14:48:08;;;;;;;;;;;;;;;;;;4980273;28;1903;-68
2022/03/24 14:50:34;;;;;;;;;;;;;;;;;;4981108;28;1513;-66
2022/03/24 14:53:00;;;;;;;;;;;;;;;;;;4983549;28;1439;-66
2022/03/24 14:55:25;;;;;;;;;;;;;;;;;;4983036;28;1383;-69
2022/03/24 14:57:52;;;;;;;;;;;;;;;;;;4982674;28;1411;-68
2022/03/24 15:00:18;;;;;;;;;;;;;;;;;;4982414;28;1161;-69
2022/03/24 15:02:44;;;;;;;;;;;;;;;;;;4982344;28;1450;-67
2022/03/24 15:05:10;;;;;;;;;;;;;;;;;;4981680;28;1866;-70
2022/03/24 15:07:36;;;;;;;;;;;;;;;;;;4982642;28;1953;-68
2022/03/24 15:10:01;;;;;;;;;;;;;;;;;;4982352;28;1786;-68
2022/03/24 15:12:27;;;;;;;;;;;;;;;;;;4981817;28;1327;-67
2022/03/24 15:17:35;;;;;;;;;;;;;;;;;;4983546;28;1104;-67
2022/03/24 15:20:01;;;;;;;;;;;;;;;;;;4983329;28;1394;-69
2022/03/24 15:22:26;;;;;;;;;;;;;;;;;;4982469;28;1438;-71
2022/03/24 15:24:52;;;;;;;;;;;;;;;;;;4982873;28;1332;-68
2022/03/24 15:27:17;;;;;;;;;;;;;;;;;;4982519;28;1898;-69
2022/03/24 15:29:42;;;;;;;;;;;;;;;;;;4982877;28;1196;-68
2022/03/24 15:32:09;;;;;;;;;;;;;;;;;;4982959;28;1586;-65
2022/03/24 15:34:34;;;;;;;;;;;;;;;;;;4982489;28;1423;-65
2022/03/24 15:36:59;;;;;;;;;;;;;;;;;;4980670;28;1616;-67
2022/03/24 15:39:25;;;;;;;;;;;;;;;;;;4980725;28;1426;-66
2022/03/24 15:41:51;;;;;;;;;;;;;;;;;;4982317;28;1279;-67
2022/03/24 15:44:18;;;;;;;;;;;;;;;;;;4982650;28;1434;-66
2022/03/24 15:46:43;;;;;;;;;;;;;;;;;;4981154;28;1898;-67
2022/03/24 15:49:08;;;;;;;;;;;;;;;;;;4981532;28;1261;-66
2022/03/24 15:51:34;;;;;;;;;;;;;;;;;;4980560;28;1403;-66
2022/03/24 15:53:59;;;;;;;;;;;;;;;;;;4982066;28;1307;-66
2022/03/24 15:56:24;;;;;;;;;;;;;;;;;;4981984;28;1276;-66
2022/03/24 15:58:49;;;;;;;;;;;;;;;;;;4982871;28;1319;-65
2022/03/24 16:01:17;;;;;;;;;;;;;;;;;;4980998;28;1391;-66
2022/03/24 16:03:42;;;;;;;;;;;;;;;;;;4982670;28;1221;-67
2022/03/24 16:06:07;;;;;;;;;;;;;;;;;;4981494;28;1438;-67
2022/03/24 16:08:33;;;;;;;;;;;;;;;;;;4981325;28;1902;-66
2022/03/24 16:10:58;;;;;;;;;;;;;;;;;;4982373;28;1225;-66
2022/03/24 16:13:24;;;;;;;;;;;;;;;;;;4982842;28;1324;-68
2022/03/24 16:15:50;;;;;;;;;;;;;;;;;;4980590;28;1395;-68
2022/03/24 16:18:15;;;;;;;;;;;;;;;;;;4981720;28;1482;-67
2022/03/24 16:20:40;;;;;;;;;;;;;;;;;;4982221;28;1244;-65
2022/03/24 16:23:06;;;;;;;;;;;;;;;;;;4982395;28;1182;-66
2022/03/24 16:25:33;;;;;;;;;;;;;;;;;;4982453;28;1325;-66
2022/03/24 16:27:58;;;;;;;;;;;;;;;;;;4979646;28;1978;-67
2022/03/24 16:30:23;;;;;;;;;;;;;;;;;;4981819;28;1493;-68
2022/03/24 16:32:49;;;;;;;;;;;;;;;;;;4982020;28;1311;-67
2022/03/24 16:35:14;;;;;;;;;;;;;;;;;;4981661;28;1355;-68
2022/03/24 16:37:39;;;;;;;;;;;;;;;;;;4982345;28;1275;-67
2022/03/24 16:40:05;;;;;;;;;;;;;;;;;;4981396;28;1418;-67
2022/03/24 16:42:30;;;;;;;;;;;;;;;;;;4982224;28;1280;-67
2022/03/24 16:44:56;;;;;;;;;;;;;;;;;;4982020;28;1434;-67
2022/03/24 16:47:21;;;;;;;;;;;;;;;;;;4977887;28;1967;-67
2022/03/24 16:49:46;;;;;;;;;;;;;;;;;;4977466;28;1750;-67
2022/03/24 16:52:11;;;;;;;;;;;;;;;;;;4979671;28;2080;-67
2022/03/24 16:54:37;;;;;;;;;;;;;;;;;;4981742;28;1273;-68
2022/03/24 16:57:02;;;;;;;;;;;;;;;;;;4978727;28;1580;-67
2022/03/24 16:59:28;;;;;;;;;;;;;;;;;;4980375;28;1368;-68
2022/03/24 17:01:53;;;;;;;;;;;;;;;;;;4981121;28;1892;-68